Time;durP1;ratioP1;P1;durP2;ratioP2;P2;SDS_P1;SDS_P2;PMS_P1;PMS_P2;Temp;Humidity;BMP_temperature;BMP_pressure;BME280_temperature;BME280_humidity;BME280_pressure;Samples;Min_cycle;Max_cycle;Signal;HPM_P1;HPM_P2
2022/10/05 00:00:44;;;;;;;6.28;2.67;;;;;;;16.51;53.54;101590.03;5031781;28;98838;-69
2022/10/05 00:03:11;;;;;;;6.35;2.92;;;;;;;16.61;53.38;101591.34;5033148;28;97044;-67
2022/10/05 00:05:38;;;;;;;7.90;2.40;;;;;;;16.86;52.99;101592.88;5031673;28;97403;-66
2022/10/05 00:08:12;;;;;;;18.10;2.83;;;;;;;16.77;53.04;101594.16;5032745;28;99096;-66
2022/10/05 00:10:41;;;;;;;7.75;2.60;;;;;;;16.67;53.18;101585.72;5030777;28;98865;-66
2022/10/05 00:13:12;;;;;;;4.05;2.53;;;;;;;16.69;53.21;101586.53;5027683;28;96981;-67
2022/10/05 00:15:38;;;;;;;5.18;2.83;;;;;;;16.60;53.52;101580.78;5031539;28;97067;-66
2022/10/05 00:18:14;;;;;;;6.70;2.80;;;;;;;16.48;53.92;101565.28;5031392;28;99336;-65
2022/10/05 00:20:41;;;;;;;5.25;2.75;;;;;;;16.65;53.38;101570.75;5031461;27;99188;-66
2022/10/05 00:23:14;;;;;;;9.05;2.72;;;;;;;16.76;52.90;101589.75;5031164;28;97181;-65
2022/10/05 00:25:40;;;;;;;6.72;2.72;;;;;;;16.64;53.34;101585.88;5029561;28;96898;-66
2022/10/05 00:28:16;;;;;;;7.50;2.58;;;;;;;16.51;53.94;101578.50;5031230;28;98582;-65
2022/10/05 00:30:42;;;;;;;3.60;2.47;;;;;;;16.76;53.00;101581.75;5033427;28;98752;-67
2022/10/05 00:33:10;;;;;;;7.32;2.70;;;;;;;16.61;53.51;101587.81;5030390;28;97729;-67
2022/10/05 00:35:36;;;;;;;6.95;2.60;;;;;;;16.66;53.20;101585.81;5031499;28;98355;-67
2022/10/05 00:38:03;;;;;;;9.90;2.80;;;;;;;16.71;53.38;101584.66;5027356;28;98977;-65
2022/10/05 00:40:40;;;;;;;7.28;2.75;;;;;;;16.44;53.83;101579.72;5031968;28;99379;-67
2022/10/05 00:43:34;;;;;;;9.85;3.05;;;;;;;16.47;54.01;101593.78;5025528;27;97200;-66
2022/10/05 00:46:07;;;;;;;12.48;3.03;;;;;;;16.40;53.97;101578.13;5032580;28;96790;-66
2022/10/05 00:48:45;;;;;;;8.10;2.95;;;;;;;16.38;54.08;101566.66;5030913;28;99272;-66
2022/10/05 00:51:23;;;;;;;13.57;2.78;;;;;;;16.40;54.26;101563.00;5029634;28;99319;-66
2022/10/05 00:54:01;;;;;;;5.40;2.75;;;;;;;16.44;54.04;101567.25;5027947;28;97804;-67
2022/10/05 00:56:47;;;;;;;5.72;2.78;;;;;;;16.39;54.01;101563.06;5029234;27;96774;-66
2022/10/05 00:59:27;;;;;;;10.32;3.05;;;;;;;16.05;55.07;101555.75;5031694;28;100504;-66
2022/10/05 01:01:59;;;;;;;8.88;2.83;;;;;;;16.30;54.24;101546.53;5032529;27;99037;-67
2022/10/05 01:04:34;;;;;;;9.52;3.25;;;;;;;16.20;54.56;101553.25;5030738;27;96929;-67
2022/10/05 01:07:09;;;;;;;6.95;2.90;;;;;;;16.16;54.67;101548.97;5033925;28;96680;-67
2022/10/05 01:09:44;;;;;;;10.20;2.80;;;;;;;16.20;54.44;101541.72;5032024;28;98047;-67
2022/10/05 01:12:21;;;;;;;6.97;2.88;;;;;;;16.28;54.42;101543.06;5031059;28;100779;-66
2022/10/05 01:14:54;;;;;;;8.65;2.55;;;;;;;16.22;54.46;101546.03;5027249;28;97222;-66
2022/10/05 01:17:25;;;;;;;9.23;2.92;;;;;;;16.51;53.69;101554.47;5032693;27;96759;-66
2022/10/05 01:20:10;;;;;;;8.68;2.55;;;;;;;16.38;54.09;101548.88;5030362;28;100834;-66
2022/10/05 01:22:50;;;;;;;8.90;3.00;;;;;;;16.35;53.91;101547.19;5030179;28;99159;-66
2022/10/05 01:25:23;;;;;;;5.38;3.10;;;;;;;16.13;54.33;101535.81;5027556;28;97336;-66
2022/10/05 01:28:02;;;;;;;11.38;3.03;;;;;;;16.21;54.29;101525.63;5029905;28;96949;-66
2022/10/05 01:30:36;;;;;;;7.43;2.72;;;;;;;16.39;53.78;101517.72;5029380;28;99032;-66
2022/10/05 01:33:09;;;;;;;3.47;2.70;;;;;;;16.28;54.00;101535.06;5027457;28;98825;-66
2022/10/05 01:35:45;;;;;;;6.93;2.97;;;;;;;16.40;53.51;101540.78;5030972;27;98400;-66
2022/10/05 01:38:24;;;;;;;4.85;3.20;;;;;;;16.39;53.61;101531.94;5031572;28;96967;-65
2022/10/05 01:41:01;;;;;;;5.80;2.90;;;;;;;16.46;53.32;101540.50;5025912;28;99443;-65
2022/10/05 01:43:38;;;;;;;5.43;2.72;;;;;;;16.27;53.59;101540.50;5028404;28;99362;-66
2022/10/05 01:46:14;;;;;;;6.80;2.63;;;;;;;16.26;53.96;101538.78;5028226;28;97676;-65
2022/10/05 01:48:53;;;;;;;9.55;3.10;;;;;;;16.27;53.83;101533.38;5031816;27;96883;-66
2022/10/05 01:51:32;;;;;;;8.50;3.00;;;;;;;16.31;53.54;101537.63;5027273;28;99012;-66
2022/10/05 01:54:06;;;;;;;8.32;2.60;;;;;;;16.28;53.82;101532.41;5027800;28;98883;-66
2022/10/05 01:56:42;;;;;;;5.53;2.72;;;;;;;16.32;53.45;101539.34;5031463;27;97395;-65
2022/10/05 01:59:21;;;;;;;6.55;3.10;;;;;;;16.39;53.65;101545.25;5031155;28;96864;-66
2022/10/05 02:01:56;;;;;;;8.20;2.63;;;;;;;16.13;54.07;101541.13;5028908;28;99343;-66
2022/10/05 02:04:30;;;;;;;12.32;3.30;;;;;;;16.23;53.78;101545.09;5031123;28;100682;-66
2022/10/05 02:06:58;;;;;;;6.85;2.65;;;;;;;16.17;53.93;101545.38;5031230;28;96787;-66
2022/10/05 02:09:28;;;;;;;6.78;2.83;;;;;;;16.15;53.94;101551.72;5032242;27;96868;-65
2022/10/05 02:11:59;;;;;;;9.13;2.80;;;;;;;16.09;53.90;101546.66;5030170;28;99031;-66
2022/10/05 02:14:33;;;;;;;7.75;3.33;;;;;;;15.98;54.46;101549.81;5027176;27;99573;-66
2022/10/05 02:17:05;;;;;;;3.55;2.33;;;;;;;15.82;54.96;101548.75;5029867;28;97279;-66
2022/10/05 02:19:35;;;;;;;5.97;2.83;;;;;;;15.82;54.91;101551.44;5031345;28;96893;-65
2022/10/05 02:22:06;;;;;;;4.10;2.33;;;;;;;15.98;54.45;101554.28;5029975;28;99458;-66
2022/10/05 02:24:39;;;;;;;6.32;2.60;;;;;;;15.86;54.76;101553.06;5030187;27;99135;-66
2022/10/05 02:27:08;;;;;;;6.43;2.47;;;;;;;16.14;54.03;101547.34;5030949;27;96889;-66
2022/10/05 02:29:39;;;;;;;9.63;3.10;;;;;;;15.98;54.38;101547.16;5030836;28;96841;-65
2022/10/05 02:32:12;;;;;;;7.45;2.83;;;;;;;16.15;53.98;101547.25;5029853;28;99165;-66
2022/10/05 02:34:40;;;;;;;7.43;3.15;;;;;;;15.87;54.69;101547.66;5030910;27;98793;-66
2022/10/05 02:37:18;;;;;;;6.03;2.90;;;;;;;16.06;54.13;101550.34;5029969;28;96974;-66
2022/10/05 02:39:59;;;;;;;6.60;2.70;;;;;;;16.06;54.10;101552.16;5031192;28;96921;-65
2022/10/05 02:42:31;;;;;;;6.18;3.13;;;;;;;15.99;54.36;101548.91;5029345;28;101947;-66
2022/10/05 02:45:08;;;;;;;4.45;2.80;;;;;;;15.78;54.81;101549.84;5028265;28;97990;-66
2022/10/05 02:47:40;;;;;;;8.15;3.05;;;;;;;15.68;55.11;101543.22;5028876;28;97785;-65
2022/10/05 02:50:16;;;;;;;7.57;2.92;;;;;;;15.86;54.73;101542.38;5024953;28;96807;-66
2022/10/05 02:52:50;;;;;;;8.07;3.17;;;;;;;15.87;54.41;101541.47;5029802;28;101146;-64
2022/10/05 02:55:19;;;;;;;3.55;2.50;;;;;;;15.81;54.68;101547.06;5029938;28;98794;-65
2022/10/05 02:57:56;;;;;;;7.75;3.17;;;;;;;15.90;54.60;101543.97;5028258;27;97085;-66
2022/10/05 03:00:24;;;;;;;;;;;;;;;15.94;54.35;101538.44;5029342;28;96924;-66
2022/10/05 03:03:00;;;;;;;5.88;2.95;;;;;;;15.69;55.08;101537.78;5029755;28;99223;-66
2022/10/05 03:05:31;;;;;;;5.18;3.05;;;;;;;15.99;54.15;101527.56;5029569;28;101137;-65
2022/10/05 03:08:02;;;;;;;4.82;2.72;;;;;;;15.97;54.27;101533.91;5033105;28;96772;-65
2022/10/05 03:10:36;;;;;;;5.13;2.90;;;;;;;15.86;54.46;101531.72;5030971;28;96885;-66
2022/10/05 03:13:08;;;;;;;4.95;2.55;;;;;;;15.88;54.23;101525.38;5030963;28;99204;-65
2022/10/05 03:16:15;;;;;;;9.52;3.00;;;;;;;15.94;54.30;101532.25;5030302;27;98756;-65
2022/10/05 03:18:55;;;;;;;9.30;3.27;;;;;;;15.73;55.00;101520.75;5030462;27;97106;-66
2022/10/05 03:21:35;;;;;;;5.85;2.70;;;;;;;16.06;53.91;101522.81;5034936;28;96739;-65
2022/10/05 03:24:20;;;;;;;7.20;3.10;;;;;;;16.11;53.83;101521.66;5032673;28;98991;-66
2022/10/05 03:26:56;;;;;;;4.22;2.45;;;;;;;15.93;53.94;101517.19;5030929;28;98744;-66
2022/10/05 03:29:33;;;;;;;9.43;2.65;;;;;;;16.17;53.53;101513.38;5033579;28;96928;-66
2022/10/05 03:32:12;;;;;;;4.90;2.88;;;;;;;15.98;53.74;101512.50;5031344;28;97123;-66
2022/10/05 03:34:45;;;;;;;5.15;2.95;;;;;;;16.08;53.61;101497.81;5032365;28;99128;-66
2022/10/05 03:37:20;;;;;;;16.00;3.40;;;;;;;15.89;54.11;101504.91;5026926;28;98825;-66
2022/10/05 03:39:51;;;;;;;7.55;2.70;;;;;;;16.19;53.50;101500.84;5033359;28;96742;-67
2022/10/05 03:42:29;;;;;;;6.07;2.58;;;;;;;16.11;53.62;101496.81;5030735;28;98777;-67
2022/10/05 03:45:03;;;;;;;6.28;3.10;;;;;;;16.06;53.85;101494.38;5029238;28;99070;-67
2022/10/05 03:47:39;;;;;;;4.75;2.90;;;;;;;16.13;53.62;101497.63;5032133;27;99164;-67
2022/10/05 03:50:24;;;;;;;4.18;2.50;;;;;;;16.09;53.85;101494.22;5034116;28;96801;-66
2022/10/05 03:52:55;;;;;;;6.22;2.92;;;;;;;16.03;53.75;101488.28;5022120;28;96807;-66
2022/10/05 03:55:28;;;;;;;6.15;2.47;;;;;;;16.35;52.97;101483.19;5031298;28;99844;-66
2022/10/05 03:57:59;;;;;;;9.48;2.72;;;;;;;16.08;53.55;101486.31;5028132;28;100271;-66
2022/10/05 04:00:29;;;;;;;4.93;2.60;;;;;;;15.94;53.72;101484.28;5031418;28;98318;-65
2022/10/05 04:03:02;;;;;;;9.35;2.33;;;;;;;16.16;53.36;101473.47;5033482;28;96904;-66
2022/10/05 04:05:33;;;;;;;9.18;2.60;;;;;;;16.02;53.55;101476.75;5031703;28;99194;-66
2022/10/05 04:08:04;;;;;;;5.13;2.42;;;;;;;15.92;53.91;101480.81;5033509;28;101463;-66
2022/10/05 04:10:39;;;;;;;7.57;3.00;;;;;;;16.09;53.36;101477.34;5032289;28;96997;-66
2022/10/05 04:13:14;;;;;;;5.63;2.80;;;;;;;16.09;53.37;101474.69;5033511;27;97038;-67
2022/10/05 04:15:45;;;;;;;5.95;2.83;;;;;;;16.10;53.15;101474.63;5031169;27;98925;-66
2022/10/05 04:18:23;;;;;;;5.55;3.03;;;;;;;16.08;53.33;101472.97;5029686;28;99453;-66
2022/10/05 04:20:54;;;;;;;3.45;2.15;;;;;;;16.03;53.65;101474.97;5032114;28;96767;-66
2022/10/05 04:23:29;;;;;;;7.65;3.03;;;;;;;16.17;53.31;101470.72;5033171;28;97607;-66
2022/10/05 04:26:02;;;;;;;5.07;2.55;;;;;;;16.09;53.37;101478.22;5029164;28;98878;-66
2022/10/05 04:28:38;;;;;;;5.60;2.83;;;;;;;16.03;53.48;101472.31;5032368;28;99510;-66
2022/10/05 04:31:09;;;;;;;8.85;2.42;;;;;;;16.18;53.42;101476.94;5028741;28;97472;-67
2022/10/05 04:33:37;;;;;;;6.60;3.20;;;;;;;16.07;53.70;101476.56;5030363;27;97375;-66
2022/10/05 04:36:13;;;;;;;7.60;2.55;;;;;;;16.03;53.59;101480.31;5031452;28;99368;-65
2022/10/05 04:38:50;;;;;;;6.07;2.55;;;;;;;15.84;54.15;101472.28;5031152;28;98069;-67
2022/10/05 04:41:33;;;;;;;4.20;2.65;;;;;;;15.98;53.69;101475.19;5030908;28;98584;-66
2022/10/05 04:44:12;;;;;;;8.32;2.75;;;;;;;15.94;53.75;101482.47;5030186;28;98777;-66
2022/10/05 04:46:56;;;;;;;6.35;2.80;;;;;;;15.89;54.18;101487.13;5030412;28;99022;-66
2022/10/05 04:49:47;;;;;;;6.55;2.90;;;;;;;16.06;53.67;101486.38;5032140;27;99402;-66
2022/10/05 04:52:23;;;;;;;7.47;3.22;;;;;;;15.85;54.11;101482.03;5030017;28;98737;-69
2022/10/05 04:55:02;;;;;;;6.50;2.35;;;;;;;15.86;54.08;101489.09;5031859;28;98079;-66
2022/10/05 04:57:33;;;;;;;9.57;3.28;;;;;;;15.83;54.17;101483.88;5030464;28;99677;-66
2022/10/05 05:00:05;;;;;;;7.85;3.22;;;;;;;16.05;53.60;101486.44;5029370;28;98193;-67
2022/10/05 05:02:51;;;;;;;8.80;3.10;;;;;;;15.92;54.21;101479.00;5029794;28;97864;-67
2022/10/05 05:05:27;;;;;;;9.07;3.13;;;;;;;15.85;54.46;101484.69;5029496;28;96753;-66
2022/10/05 05:08:06;;;;;;;4.57;3.00;;;;;;;15.78;54.46;101473.44;5031240;27;98351;-66
2022/10/05 05:10:53;;;;;;;9.25;3.15;;;;;;;16.09;53.50;101470.22;5029692;28;99096;-67
2022/10/05 05:13:37;;;;;;;6.60;3.10;;;;;;;15.81;54.60;101477.78;5026700;28;97345;-67
2022/10/05 05:16:10;;;;;;;7.05;3.17;;;;;;;16.01;53.84;101468.88;5028573;28;96866;-67
2022/10/05 05:19:08;;;;;;;6.78;3.25;;;;;;;16.02;53.98;101482.09;5033238;27;99166;-68
2022/10/05 05:21:45;;;;;;;7.72;3.40;;;;;;;16.10;53.41;101484.41;5029490;28;98758;-66
2022/10/05 05:24:23;;;;;;;20.33;3.58;;;;;;;15.62;54.86;101479.53;5027646;28;98175;-65
2022/10/05 05:27:02;;;;;;;16.63;3.63;;;;;;;15.82;54.31;101480.34;5027404;28;96887;-66
2022/10/05 05:29:40;;;;;;;12.93;3.10;;;;;;;15.80;54.51;101474.25;5030284;27;99688;-67
2022/10/05 05:32:17;;;;;;;23.27;4.25;;;;;;;15.75;54.49;101467.41;5028642;28;98804;-65
2022/10/05 05:35:00;;;;;;;11.80;3.50;;;;;;;15.90;54.18;101459.56;5026927;28;97199;-66
2022/10/05 05:37:34;;;;;;;11.77;4.45;;;;;;;15.86;54.33;101460.63;5031084;28;96812;-65
2022/10/05 05:40:07;;;;;;;20.90;5.25;;;;;;;15.66;55.11;101446.50;5028343;28;98273;-67
2022/10/05 05:42:43;;;;;;;14.02;3.13;;;;;;;15.85;54.22;101448.25;5029743;27;99182;-65
2022/10/05 05:45:17;;;;;;;12.93;3.42;;;;;;;15.74;54.78;101450.53;5030139;28;96989;-66
2022/10/05 05:47:51;;;;;;;10.27;3.63;;;;;;;15.77;54.65;101450.38;5028373;27;96805;-65
2022/10/05 05:50:31;;;;;;;13.00;4.47;;;;;;;16.03;54.01;101454.50;5025075;27;97857;-65
2022/10/05 05:53:05;;;;;;;14.98;4.43;;;;;;;16.05;53.98;101459.78;5020168;28;98952;-66
2022/10/05 05:55:39;;;;;;;10.68;3.50;;;;;;;15.95;54.11;101472.66;5029769;27;96756;-67
2022/10/05 05:58:13;;;;;;;32.55;4.50;;;;;;;16.02;54.22;101474.09;5027501;27;96934;-66
2022/10/05 06:00:46;;;;;;;8.50;3.47;;;;;;;15.88;54.16;101474.75;5031400;28;99380;-67
2022/10/05 06:03:18;;;;;;;13.63;4.70;;;;;;;15.95;54.00;101462.84;5030720;28;100486;-67
2022/10/05 06:05:49;;;;;;;7.32;3.75;;;;;;;15.98;54.15;101467.19;5027361;28;96860;-67
2022/10/05 06:08:26;;;;;;;7.75;3.25;;;;;;;16.18;53.54;101468.94;5022563;27;96879;-67
2022/10/05 06:10:58;;;;;;;12.30;3.67;;;;;;;16.44;52.87;101457.00;5030085;27;102589;-67
2022/10/05 06:13:30;;;;;;;13.65;3.15;;;;;;;16.30;52.96;101468.34;5027558;27;98297;-67
2022/10/05 06:16:03;;;;;;;9.43;3.95;;;;;;;16.27;53.31;101466.72;5019938;27;97234;-67
2022/10/05 06:18:32;;;;;;;14.10;3.60;;;;;;;16.27;53.44;101469.38;5025854;27;96794;-66
2022/10/05 06:21:03;;;;;;;7.15;3.47;;;;;;;16.11;53.62;101463.03;5031331;28;98948;-66
2022/10/05 06:23:37;;;;;;;8.60;3.72;;;;;;;16.45;52.87;101459.59;5026392;28;98840;-67
2022/10/05 06:26:19;;;;;;;6.88;3.25;;;;;;;16.58;52.41;101470.53;5027262;28;97300;-66
2022/10/05 06:28:52;;;;;;;9.05;3.03;;;;;;;16.59;52.24;101483.81;5026184;28;96992;-67
2022/10/05 06:31:30;;;;;;;9.55;4.18;;;;;;;16.44;52.89;101478.34;5027885;28;99026;-67
2022/10/05 06:34:13;;;;;;;4.78;3.15;;;;;;;16.54;52.43;101480.47;5027049;28;99143;-66
2022/10/05 06:36:46;;;;;;;6.63;2.90;;;;;;;16.60;52.53;101474.03;5027016;28;97137;-68
2022/10/05 06:39:39;;;;;;;8.20;3.17;;;;;;;16.53;52.47;101477.91;5029333;28;96924;-66
2022/10/05 06:42:15;;;;;;;8.93;3.60;;;;;;;16.49;52.74;101477.19;5027321;27;98262;-66
2022/10/05 06:44:52;;;;;;;4.07;2.83;;;;;;;16.59;52.63;101485.63;5031626;27;98166;-68
2022/10/05 06:47:27;;;;;;;9.73;3.00;;;;;;;16.76;52.07;101482.16;5030062;28;97358;-67
2022/10/05 06:50:04;;;;;;;7.93;3.20;;;;;;;16.67;52.35;101486.16;5035226;28;97264;-67
2022/10/05 06:52:42;;;;;;;4.45;2.40;;;;;;;16.77;52.08;101487.41;5033993;28;98861;-67
2022/10/05 06:55:18;;;;;;;7.25;3.38;;;;;;;16.87;51.90;101494.00;5035051;28;100879;-66
2022/10/05 06:57:58;;;;;;;9.05;2.90;;;;;;;17.04;51.39;101486.03;5034226;28;97075;-66
2022/10/05 07:00:32;;;;;;;5.60;2.85;;;;;;;17.04;51.47;101483.38;5035472;28;96732;-66
2022/10/05 07:03:06;;;;;;;10.07;3.00;;;;;;;16.94;51.74;101489.22;5035065;28;98207;-67
2022/10/05 07:05:58;;;;;;;8.13;2.65;;;;;;;16.92;51.59;101475.13;5032529;28;98989;-67
2022/10/05 07:08:34;;;;;;;8.98;3.20;;;;;;;16.78;52.16;101488.28;5034995;27;96694;-66
2022/10/05 07:11:14;;;;;;;9.48;3.20;;;;;;;16.91;51.89;101484.06;5035065;28;96798;-66
2022/10/05 07:14:01;;;;;;;7.57;3.20;;;;;;;17.00;51.87;101481.78;5034176;28;99362;-67
2022/10/05 07:16:38;;;;;;;4.90;2.45;;;;;;;17.04;51.50;101480.69;5031690;28;102137;-67
2022/10/05 07:19:19;;;;;;;6.13;2.60;;;;;;;17.10;51.46;101493.75;5034853;28;97235;-66
2022/10/05 07:22:00;;;;;;;6.05;2.92;;;;;;;17.21;51.11;101492.31;5034746;28;97286;-66
2022/10/05 07:24:31;;;;;;;7.10;2.90;;;;;;;17.16;51.20;101486.34;5033320;28;99173;-67
2022/10/05 07:27:09;;;;;;;9.55;3.22;;;;;;;17.18;51.28;101495.16;5027951;28;98778;-67
2022/10/05 07:29:45;;;;;;;6.28;2.75;;;;;;;17.48;50.80;101491.75;5033258;28;97303;-67
2022/10/05 07:32:24;;;;;;;10.13;2.83;;;;;;;17.41;50.71;101498.34;5034617;28;96815;-67
2022/10/05 07:35:01;;;;;;;11.15;4.68;;;;;;;17.77;49.91;101492.94;5032938;28;99179;-67
2022/10/05 07:37:54;;;;;;;5.85;3.00;;;;;;;18.15;48.83;101481.94;5034042;28;102998;-67
2022/10/05 07:40:27;;;;;;;5.65;3.28;;;;;;;17.94;49.00;101494.69;5030924;28;97569;-67
2022/10/05 07:43:07;;;;;;;8.57;2.78;;;;;;;18.00;48.91;101489.00;5033000;28;97693;-66
2022/10/05 07:45:44;;;;;;;7.60;3.30;;;;;;;18.20;48.69;101493.25;5033547;28;100488;-67
2022/10/05 07:48:16;;;;;;;11.23;3.20;;;;;;;18.19;48.45;101495.06;5032422;27;98799;-67
2022/10/05 07:50:56;;;;;;;9.23;2.72;;;;;;;18.24;48.70;101498.38;5033732;28;96791;-66
2022/10/05 07:53:27;;;;;;;11.63;3.17;;;;;;;17.98;49.15;101496.25;5034118;27;96736;-66
2022/10/05 07:55:57;;;;;;;6.18;2.80;;;;;;;18.23;49.10;101485.06;5032897;28;99741;-66
2022/10/05 07:58:31;;;;;;;6.63;2.63;;;;;;;18.43;48.42;101495.53;5030241;28;101354;-66
2022/10/05 08:01:06;;;;;;;34.47;4.35;;;;;;;18.58;47.83;101499.16;5022635;28;98102;-67
2022/10/05 08:03:44;;;;;;;60.45;5.75;;;;;;;18.57;48.01;101497.44;5014609;28;99705;-67
2022/10/05 08:06:16;;;;;;;10.80;2.92;;;;;;;18.83;47.70;101502.19;5028523;27;99607;-67
2022/10/05 08:08:51;;;;;;;4.78;2.50;;;;;;;18.72;47.52;101501.91;5025269;27;99349;-67
2022/10/05 08:11:22;;;;;;;6.70;2.60;;;;;;;18.56;47.91;101482.34;5032000;28;96827;-67
2022/10/05 08:13:54;;;;;;;6.07;2.47;;;;;;;18.84;47.34;101476.28;5025774;28;96956;-67
2022/10/05 08:16:24;;;;;;;8.05;2.65;;;;;;;18.94;47.55;101472.09;5027085;28;101400;-67
2022/10/05 08:18:56;;;;;;;5.82;2.45;;;;;;;19.03;46.69;101458.16;5026812;28;97859;-66
2022/10/05 08:21:31;;;;;;;12.10;4.75;;;;;;;18.80;47.86;101455.97;5029178;28;98384;-66
2022/10/05 08:24:05;;;;;;;6.50;2.30;;;;;;;19.09;47.07;101455.13;5029455;28;98923;-68
2022/10/05 08:26:43;;;;;;;7.70;2.40;;;;;;;19.11;47.00;101462.09;5027234;28;99287;-68
2022/10/05 08:29:20;;;;;;;4.32;2.42;;;;;;;19.41;46.61;101450.50;5026925;28;98787;-68
2022/10/05 08:31:49;;;;;;;5.88;2.58;;;;;;;19.27;46.52;101443.28;5027521;27;97229;-67
2022/10/05 08:34:23;;;;;;;4.53;1.92;;;;;;;19.06;47.16;101437.41;5018785;28;96843;-68
2022/10/05 08:36:58;;;;;;;9.65;2.20;;;;;;;19.33;46.85;101442.03;5027522;28;100976;-68
2022/10/05 08:39:29;;;;;;;7.90;2.40;;;;;;;19.18;47.03;101443.81;5030691;28;99340;-68
2022/10/05 08:42:12;;;;;;;12.18;2.58;;;;;;;19.38;46.49;101434.56;5029652;28;96849;-66
2022/10/05 08:45:11;;;;;;;8.65;2.40;;;;;;;19.49;46.24;101432.16;5029836;28;98767;-68
2022/10/05 08:48:05;;;;;;;10.38;2.88;;;;;;;19.57;46.02;101439.69;5027704;28;98992;-67
2022/10/05 08:50:52;;;;;;;9.07;4.63;;;;;;;19.92;45.46;101441.03;5001507;28;99585;-67
2022/10/05 08:53:38;;;;;;;8.20;2.72;;;;;;;19.69;45.73;101431.75;5025004;28;96875;-68
2022/10/05 08:56:29;;;;;;;8.18;2.15;;;;;;;19.95;45.48;101432.81;5028059;28;96854;-67
2022/10/05 08:59:28;;;;;;;9.27;3.20;;;;;;;19.88;45.50;101426.13;5024324;28;98281;-67
2022/10/05 09:02:15;;;;;;;7.05;2.25;;;;;;;20.14;45.24;101419.94;5029023;28;98973;-67
2022/10/05 09:04:56;;;;;;;8.10;2.97;;;;;;;19.97;45.65;101430.88;5028490;28;97343;-67
2022/10/05 09:07:48;;;;;;;6.70;2.10;;;;;;;20.37;44.70;101425.66;5027832;28;96886;-66
2022/10/05 09:10:46;;;;;;;9.07;2.50;;;;;;;20.34;44.70;101421.38;5030493;28;99368;-67
2022/10/05 09:13:28;;;;;;;4.45;2.30;;;;;;;20.07;45.05;101423.13;5026306;28;99118;-67
2022/10/05 09:16:10;;;;;;;6.15;2.50;;;;;;;20.08;45.03;101424.84;5028269;28;97534;-66
2022/10/05 09:18:53;;;;;;;6.90;2.28;;;;;;;20.35;44.88;101423.06;5027978;28;96881;-66
2022/10/05 09:21:33;;;;;;;4.20;2.28;;;;;;;20.34;45.23;101424.06;5025247;28;99100;-67
2022/10/05 09:24:26;;;;;;;7.80;2.65;;;;;;;20.45;45.07;101423.34;5025690;28;99230;-67
2022/10/05 09:27:02;;;;;;;6.70;2.10;;;;;;;20.49;44.92;101414.09;5014716;27;96976;-67
2022/10/05 09:30:08;;;;;;;5.60;2.65;;;;;;;20.46;44.93;101414.31;5027249;28;96784;-67
2022/10/05 09:32:58;;;;;;;8.23;2.95;;;;;;;20.56;44.82;101418.09;5027997;28;99266;-66
2022/10/05 09:35:56;;;;;;;4.78;2.20;;;;;;;20.62;44.70;101409.63;5025056;28;101477;-67
2022/10/05 09:38:31;;;;;;;5.28;2.22;;;;;;;20.54;45.47;101406.63;5028328;28;97476;-67
2022/10/05 09:41:29;;;;;;;4.25;2.20;;;;;;;21.26;44.13;101406.16;5024058;28;98088;-67
2022/10/05 09:44:22;;;;;;;7.07;2.25;;;;;;;20.82;44.46;101405.59;5025449;28;98922;-68
2022/10/05 09:47:13;;;;;;;7.05;2.22;;;;;;;20.87;44.19;101408.88;5022528;28;99963;-66
2022/10/05 09:50:06;;;;;;;8.40;2.47;;;;;;;20.93;44.28;101401.25;5029389;28;96846;-67
2022/10/05 09:53:05;;;;;;;4.90;2.40;;;;;;;20.74;44.65;101395.41;5026137;28;97013;-66
2022/10/05 09:55:56;;;;;;;4.68;2.63;;;;;;;20.76;44.92;101400.66;5024900;28;101472;-66
2022/10/05 09:59:06;;;;;;;4.93;2.30;;;;;;;20.80;44.58;101386.94;5027028;28;97634;-67
2022/10/05 10:02:03;;;;;;;4.90;2.25;;;;;;;20.96;44.23;101387.59;4960193;28;97045;-67
2022/10/05 10:04:50;;;;;;;9.45;2.42;;;;;;;20.94;44.14;101388.66;5025924;28;97394;-66
2022/10/05 10:07:43;;;;;;;13.77;3.53;;;;;;;20.69;44.93;101387.66;5028928;28;99566;-66
2022/10/05 10:10:34;;;;;;;5.93;2.47;;;;;;;20.63;45.16;101389.88;5026982;28;98804;-67
2022/10/05 10:13:22;;;;;;;8.10;2.65;;;;;;;20.79;45.44;101381.66;5021524;28;97843;-66
2022/10/05 10:16:09;;;;;;;6.93;2.90;;;;;;;20.66;45.24;101385.19;5029643;27;97054;-68
2022/10/05 10:18:50;;;;;;;12.65;2.80;;;;;;;20.66;45.22;101381.63;5032482;27;99171;-68
2022/10/05 10:21:36;;;;;;;10.25;3.22;;;;;;;20.43;46.19;101374.25;5027926;28;98870;-66
2022/10/05 10:24:15;;;;;;;5.82;2.83;;;;;;;20.62;45.56;101394.38;5029276;28;97620;-67
2022/10/05 10:27:04;;;;;;;5.00;2.50;;;;;;;20.58;45.95;101397.38;5033198;28;97345;-67
2022/10/05 10:29:46;;;;;;;11.13;2.85;;;;;;;20.55;46.10;101395.75;5023977;27;98340;-67
2022/10/05 10:32:32;;;;;;;15.13;3.45;;;;;;;20.77;45.74;101405.06;5033588;27;99093;-67
2022/10/05 10:35:14;;;;;;;9.00;3.40;;;;;;;20.92;45.46;101409.41;5026039;28;96887;-67
2022/10/05 10:38:14;;;;;;;8.18;2.60;;;;;;;20.97;45.14;101404.56;5030889;28;96944;-66
2022/10/05 10:40:56;;;;;;;14.38;3.33;;;;;;;20.85;45.50;101395.53;5031655;28;98944;-66
2022/10/05 10:43:39;;;;;;;6.38;2.92;;;;;;;21.17;45.22;101395.19;5029437;28;97855;-66
2022/10/05 10:46:20;;;;;;;5.90;2.58;;;;;;;21.26;45.27;101408.00;5031912;27;96756;-66
2022/10/05 10:48:56;;;;;;;6.80;3.53;;;;;;;21.14;45.44;101406.09;5031983;28;97055;-67
2022/10/05 10:51:56;;;;;;;8.55;2.78;;;;;;;21.15;45.15;101399.75;5032262;28;99030;-66
2022/10/05 10:54:41;;;;;;;6.38;2.67;;;;;;;21.13;45.64;101396.34;5029337;28;99685;-67
2022/10/05 10:57:09;;;;;;;7.70;2.55;;;;;;;21.50;45.08;101389.25;5032517;28;97193;-66
2022/10/05 11:00:06;;;;;;;7.45;2.42;;;;;;;21.55;45.12;101379.03;5032002;28;96879;-67
2022/10/05 11:03:09;;;;;;;6.55;2.80;;;;;;;21.47;44.57;101384.94;5025782;28;99414;-66
2022/10/05 11:05:50;;;;;;;6.32;2.40;;;;;;;21.16;45.78;101382.69;5025473;28;99022;-67
2022/10/05 11:08:46;;;;;;;6.05;2.55;;;;;;;21.41;45.30;101380.00;5030810;28;97107;-68
2022/10/05 11:11:23;;;;;;;6.93;3.20;;;;;;;21.62;44.75;101385.69;5028955;28;97219;-66
2022/10/05 11:14:27;;;;;;;9.40;3.80;;;;;;;21.96;44.21;101373.41;5024330;28;99032;-67
2022/10/05 11:17:24;;;;;;;5.35;2.75;;;;;;;22.24;43.38;101371.25;5030358;28;97710;-68
2022/10/05 11:20:03;;;;;;;5.07;2.33;;;;;;;22.41;43.32;101364.59;5020786;27;97594;-67
2022/10/05 11:22:54;;;;;;;5.30;2.97;;;;;;;22.41;43.60;101369.97;5033484;27;97032;-66
2022/10/05 11:25:55;;;;;;;4.03;2.58;;;;;;;22.40;43.29;101368.25;5027167;28;100168;-67
2022/10/05 11:28:40;;;;;;;6.50;3.03;;;;;;;22.00;44.30;101362.28;5025214;27;97868;-66
2022/10/05 11:31:59;;;;;;;4.28;2.60;;;;;;;22.24;44.12;101349.72;5029379;28;97737;-66
2022/10/05 11:34:48;;;;;;;7.25;2.70;;;;;;;22.40;44.10;101343.16;5026362;28;96859;-67
2022/10/05 11:37:30;;;;;;;8.00;2.50;;;;;;;22.63;43.64;101353.94;5030158;28;97796;-68
2022/10/05 11:40:22;;;;;;;5.57;3.08;;;;;;;22.47;43.41;101353.34;5027640;28;98658;-67
2022/10/05 11:43:16;;;;;;;9.43;2.95;;;;;;;22.57;43.72;101343.63;5026891;28;97016;-67
2022/10/05 11:46:00;;;;;;;4.63;2.30;;;;;;;22.65;43.71;101349.25;5031018;28;97143;-68
2022/10/05 11:49:05;;;;;;;4.68;2.17;;;;;;;22.78;43.85;101340.25;5030805;28;98995;-67
2022/10/05 11:51:47;;;;;;;7.72;2.85;;;;;;;23.20;42.88;101338.75;5022160;27;99236;-67
2022/10/05 11:54:51;;;;;;;14.75;2.72;;;;;;;22.94;43.25;101328.19;5031521;28;97163;-68
2022/10/05 11:57:24;;;;;;;7.80;2.95;;;;;;;23.04;43.09;101331.00;4983176;28;98777;-67
2022/10/05 11:59:59;;;;;;;4.50;2.72;;;;;;;22.95;43.07;101331.75;5029069;28;97749;-67
2022/10/05 12:03:18;;;;;;;8.85;2.92;;;;;;;22.80;43.30;101328.41;5028961;28;97710;-67
2022/10/05 12:06:03;;;;;;;7.05;2.40;;;;;;;22.56;43.93;101324.88;4999278;28;96790;-68
2022/10/05 12:08:42;;;;;;;8.85;2.55;;;;;;;22.55;44.33;101324.03;5026121;27;96841;-66
2022/10/05 12:11:35;;;;;;;4.20;2.22;;;;;;;22.78;43.47;101318.72;5030277;28;98994;-66
2022/10/05 12:14:08;;;;;;;7.00;2.22;;;;;;;22.85;43.56;101314.56;5027841;27;99433;-67
2022/10/05 12:16:43;;;;;;;4.65;2.67;;;;;;;22.76;43.50;101305.38;5027836;28;97377;-66
2022/10/05 12:19:16;;;;;;;3.33;2.23;;;;;;;22.83;44.20;101300.38;5023322;28;98101;-68